createdAt,value
2018-04-15T00:02:20.263Z,99.90
2018-04-15T00:04:47.744Z,99.90
2018-04-15T00:07:15.296Z,99.90
2018-04-15T00:09:42.758Z,99.90
2018-04-15T00:12:10.235Z,99.90
2018-04-15T00:14:37.729Z,99.90
2018-04-15T00:17:05.275Z,99.90
2018-04-15T00:19:32.776Z,99.90
2018-04-15T00:22:00.223Z,99.90
2018-04-15T00:24:27.806Z,99.90
2018-04-15T00:26:55.287Z,99.90
2018-04-15T00:29:22.831Z,99.90
2018-04-15T00:31:50.322Z,99.90
2018-04-15T00:34:17.781Z,99.90
2018-04-15T00:36:45.269Z,99.90
2018-04-15T00:39:12.777Z,99.90
2018-04-15T00:41:40.996Z,99.90
2018-04-15T00:44:08.482Z,99.90
2018-04-15T00:46:36.054Z,99.90
2018-04-15T00:49:03.608Z,99.90
2018-04-15T00:51:31.075Z,99.90
2018-04-15T00:54:10.503Z,99.90
2018-04-15T00:56:38.022Z,99.90
2018-04-15T00:59:05.590Z,99.90
2018-04-15T01:01:33.056Z,99.90
2018-04-15T01:04:00.635Z,99.90
2018-04-15T01:06:28.203Z,99.90
2018-04-15T01:08:55.676Z,99.90
2018-04-15T01:11:23.247Z,99.90
2018-04-15T01:13:50.723Z,99.90
2018-04-15T01:16:18.284Z,99.90
2018-04-15T01:18:45.749Z,99.90
2018-04-15T01:21:13.211Z,99.90
2018-04-15T01:23:40.700Z,99.90
2018-04-15T01:26:08.951Z,99.90
2018-04-15T01:28:36.453Z,99.90
2018-04-15T01:31:03.907Z,99.90
2018-04-15T01:33:31.388Z,99.90
2018-04-15T01:35:58.850Z,99.90
2018-04-15T01:38:26.317Z,99.90
2018-04-15T01:40:53.806Z,99.90
2018-04-15T01:43:21.358Z,99.90
2018-04-15T01:45:48.826Z,99.90
2018-04-15T01:48:16.400Z,99.90
2018-04-15T01:50:43.972Z,99.90
2018-04-15T01:53:11.434Z,99.90
2018-04-15T01:55:38.922Z,99.90
2018-04-15T01:58:06.386Z,99.90
2018-04-15T02:00:33.871Z,99.90
2018-04-15T02:03:01.350Z,99.90
2018-04-15T02:05:28.902Z,99.90
2018-04-15T02:07:56.363Z,99.90
2018-04-15T02:10:23.816Z,99.90
2018-04-15T02:12:51.315Z,99.90
2018-04-15T02:15:18.872Z,99.90
2018-04-15T02:17:46.458Z,99.90
2018-04-15T02:20:14.026Z,99.90
2018-04-15T02:22:41.490Z,99.90
2018-04-15T02:25:08.952Z,99.90
2018-04-15T02:27:36.431Z,99.90
2018-04-15T02:30:04.018Z,99.90
2018-04-15T02:32:31.592Z,99.90
2018-04-15T02:34:59.207Z,99.90
2018-04-15T02:37:26.723Z,99.90
2018-04-15T02:39:54.196Z,99.90
2018-04-15T02:42:21.687Z,99.90
2018-04-15T02:44:49.150Z,99.90
2018-04-15T02:47:16.613Z,99.90
2018-04-15T02:49:44.174Z,99.90
2018-04-15T02:52:11.656Z,99.90
2018-04-15T02:54:39.107Z,99.90
2018-04-15T02:57:06.572Z,99.90
2018-04-15T02:59:34.066Z,99.90
2018-04-15T03:02:01.546Z,99.90
2018-04-15T03:04:29.022Z,99.90
2018-04-15T03:06:57.268Z,99.90
2018-04-15T03:09:24.759Z,99.90
2018-04-15T03:11:52.235Z,99.90
2018-04-15T03:14:19.810Z,99.90
2018-04-15T03:16:47.362Z,99.90
2018-04-15T03:19:14.820Z,99.90
2018-04-15T03:21:42.404Z,99.90
2018-04-15T03:24:09.874Z,99.90
2018-04-15T03:26:37.448Z,99.90
2018-04-15T03:29:04.917Z,99.90
2018-04-15T03:31:32.383Z,99.90
2018-04-15T03:33:59.848Z,99.90
2018-04-15T03:36:27.311Z,99.90
2018-04-15T03:38:54.786Z,99.90
2018-04-15T03:41:22.251Z,99.90
2018-04-15T03:43:49.824Z,99.90
2018-04-15T03:46:17.308Z,99.90
2018-04-15T03:48:44.760Z,99.90
2018-04-15T03:51:12.258Z,99.90
2018-04-15T03:53:39.723Z,99.90
2018-04-15T03:56:07.993Z,99.90
2018-04-15T03:58:35.572Z,99.90
2018-04-15T04:01:03.056Z,99.90
2018-04-15T04:03:30.503Z,99.90
2018-04-15T04:05:57.982Z,99.90
2018-04-15T04:08:25.453Z,99.90
2018-04-15T04:10:52.924Z,99.90
2018-04-15T04:13:20.399Z,99.90
2018-04-15T04:15:47.856Z,99.90
2018-04-15T04:18:27.328Z,99.90
2018-04-15T04:24:07.824Z,99.90
2018-04-15T04:26:35.276Z,99.90
2018-04-15T04:29:02.746Z,99.90
2018-04-15T04:31:30.228Z,99.90
2018-04-15T04:33:57.689Z,99.90
2018-04-15T04:36:25.271Z,99.90
2018-04-15T04:38:52.732Z,99.90
2018-04-15T04:41:20.184Z,99.90
2018-04-15T04:43:47.662Z,99.90
2018-04-15T04:46:15.152Z,99.90
2018-04-15T04:48:42.607Z,99.90
2018-04-15T04:51:10.071Z,99.90
2018-04-15T04:53:37.644Z,99.90
2018-04-15T04:56:05.118Z,99.90
2018-04-15T04:58:32.592Z,99.90
2018-04-15T05:01:00.070Z,99.90
2018-04-15T05:03:27.550Z,99.90
2018-04-15T05:05:55.095Z,99.90
2018-04-15T05:08:22.567Z,99.90
2018-04-15T05:10:50.046Z,99.90
2018-04-15T05:13:17.500Z,99.90
2018-04-15T05:15:44.972Z,99.90
2018-04-15T05:18:12.432Z,99.90
2018-04-15T05:20:39.926Z,99.90
2018-04-15T05:23:07.399Z,99.90
2018-04-15T05:25:34.883Z,99.90
2018-04-15T05:28:02.450Z,99.90
2018-04-15T05:30:29.887Z,99.90
2018-04-15T05:32:57.344Z,99.90
2018-04-15T05:35:24.835Z,99.90
2018-04-15T05:37:52.311Z,99.90
2018-04-15T05:40:19.751Z,99.90
2018-04-15T05:42:47.216Z,99.90
2018-04-15T05:45:14.668Z,99.90
2018-04-15T05:47:42.185Z,99.90
2018-04-15T05:50:10.363Z,99.90
2018-04-15T05:52:37.850Z,99.90
2018-04-15T05:55:05.328Z,99.90
2018-04-15T05:57:32.795Z,99.90
2018-04-15T06:00:00.352Z,99.90
2018-04-15T06:02:27.813Z,99.90
2018-04-15T06:04:55.279Z,99.90
2018-04-15T06:07:22.754Z,99.90
2018-04-15T06:09:50.200Z,99.90
2018-04-15T06:12:17.695Z,99.90
2018-04-15T06:14:45.160Z,99.90
2018-04-15T06:17:12.634Z,99.90
2018-04-15T06:19:40.119Z,99.90
2018-04-15T06:22:07.578Z,99.90
2018-04-15T06:24:35.124Z,99.90
2018-04-15T06:27:02.525Z,99.90
2018-04-15T06:29:29.990Z,99.90
2018-04-15T06:31:57.460Z,99.90
2018-04-15T06:34:24.919Z,99.90
2018-04-15T06:36:52.410Z,99.90
2018-04-15T06:39:19.852Z,99.90
2018-04-15T06:41:47.308Z,99.90
2018-04-15T06:44:14.808Z,99.90
2018-04-15T06:46:42.280Z,99.90
2018-04-15T06:49:09.754Z,99.90
2018-04-15T06:51:37.196Z,99.90
2018-04-15T06:54:04.693Z,99.90
2018-04-15T06:56:32.140Z,99.90
2018-04-15T06:58:59.606Z,99.90
2018-04-15T07:01:27.096Z,99.90
2018-04-15T07:03:54.552Z,99.90
2018-04-15T07:06:22.075Z,99.90
2018-04-15T07:08:49.500Z,99.90
2018-04-15T07:11:16.982Z,99.90
2018-04-15T07:13:44.439Z,99.90
2018-04-15T07:16:11.915Z,99.90
2018-04-15T07:18:39.368Z,99.90
2018-04-15T07:21:06.828Z,99.90
2018-04-15T07:23:34.335Z,99.90
2018-04-15T07:26:01.814Z,99.90
2018-04-15T07:28:29.268Z,99.90
2018-04-15T07:30:56.719Z,99.90
2018-04-15T07:33:24.189Z,99.90
2018-04-15T07:35:51.662Z,99.90
2018-04-15T07:38:19.130Z,99.90
2018-04-15T07:40:46.598Z,99.90
2018-04-15T07:43:14.060Z,99.90
2018-04-15T07:45:41.533Z,99.90
2018-04-15T07:48:09.007Z,99.90
2018-04-15T07:50:36.473Z,99.90
2018-04-15T07:53:03.920Z,99.90
2018-04-15T07:55:31.431Z,99.90
2018-04-15T07:57:58.998Z,99.90
2018-04-15T08:00:26.451Z,99.90
2018-04-15T08:02:53.912Z,99.90
2018-04-15T08:05:21.364Z,99.90
2018-04-15T08:07:48.835Z,99.90
2018-04-15T08:10:16.306Z,99.90
2018-04-15T08:12:43.804Z,99.90
2018-04-15T08:15:11.273Z,99.90
2018-04-15T08:17:38.740Z,99.90
2018-04-15T08:20:06.210Z,99.90
2018-04-15T08:22:33.656Z,99.90
2018-04-15T08:25:01.145Z,99.90
2018-04-15T08:27:28.614Z,99.90
2018-04-15T08:29:56.088Z,99.90
2018-04-15T08:32:23.577Z,99.90
2018-04-15T08:34:51.038Z,99.90
2018-04-15T08:37:18.511Z,99.90
2018-04-15T08:39:45.956Z,99.90
2018-04-15T08:42:13.458Z,99.90
2018-04-15T08:44:41.019Z,99.90
2018-04-15T08:47:08.575Z,99.90
2018-04-15T08:49:36.030Z,99.90
2018-04-15T08:52:03.522Z,99.90
2018-04-15T08:54:31.121Z,99.90
2018-04-15T08:56:58.659Z,99.90
2018-04-15T08:59:26.113Z,99.90
2018-04-15T09:01:53.580Z,99.90
2018-04-15T09:04:21.034Z,99.90
2018-04-15T09:06:48.491Z,99.90
2018-04-15T09:09:16.722Z,99.90
2018-04-15T09:11:44.163Z,99.90
2018-04-15T09:14:11.714Z,99.90
2018-04-15T09:16:39.935Z,99.90
2018-04-15T09:19:07.399Z,99.90
2018-04-15T09:21:34.866Z,99.90
2018-04-15T09:24:02.327Z,99.90
2018-04-15T09:26:29.835Z,99.90
2018-04-15T09:28:58.030Z,99.90
2018-04-15T09:31:25.494Z,99.90
2018-04-15T09:33:52.982Z,99.90
2018-04-15T09:36:20.538Z,99.90
2018-04-15T09:38:48.006Z,99.90
2018-04-15T09:41:15.467Z,99.90
2018-04-15T09:43:43.012Z,99.90
2018-04-15T09:46:10.514Z,99.90
2018-04-15T09:48:37.972Z,99.90
2018-04-15T09:51:05.444Z,99.90
2018-04-15T09:53:32.935Z,99.90
2018-04-15T09:56:00.386Z,99.90
2018-04-15T09:58:27.866Z,99.90
2018-04-15T10:01:00.999Z,99.90
2018-04-15T10:03:29.234Z,99.90
2018-04-15T10:05:56.682Z,99.90
2018-04-15T10:08:24.132Z,99.90
2018-04-15T10:10:52.339Z,99.90
2018-04-15T10:13:19.866Z,99.90
2018-04-15T10:15:47.322Z,99.90
2018-04-15T10:18:14.760Z,99.90
2018-04-15T10:20:42.267Z,99.90
2018-04-15T10:23:09.712Z,99.90
2018-04-15T10:25:37.170Z,99.90
2018-04-15T10:28:04.635Z,99.90
2018-04-15T10:30:32.086Z,99.90
2018-04-15T10:33:00.320Z,99.90
2018-04-15T10:35:27.803Z,99.90
2018-04-15T10:37:55.263Z,99.90
2018-04-15T10:40:22.715Z,99.90
2018-04-15T10:42:50.206Z,99.90
2018-04-15T10:45:17.679Z,99.90
2018-04-15T10:47:45.237Z,99.90
2018-04-15T10:50:12.767Z,99.90
2018-04-15T10:52:41.007Z,99.90
2018-04-15T10:55:08.463Z,99.90
2018-04-15T10:57:35.932Z,99.90
2018-04-15T11:00:03.414Z,99.90
2018-04-15T11:02:30.868Z,99.90
2018-04-15T11:04:58.370Z,99.90
2018-04-15T11:07:25.926Z,99.90
2018-04-15T11:09:53.375Z,99.90
2018-04-15T11:12:20.863Z,99.90
2018-04-15T11:14:48.308Z,99.90
2018-04-15T11:17:15.756Z,99.90
2018-04-15T11:19:43.203Z,99.90
2018-04-15T11:22:11.468Z,99.90
2018-04-15T11:24:38.944Z,99.90
2018-04-15T11:27:06.399Z,99.90
2018-04-15T11:29:33.840Z,99.90
2018-04-15T11:32:01.284Z,99.90
2018-04-15T11:34:28.759Z,99.90
2018-04-15T11:36:56.283Z,99.90
2018-04-15T11:39:23.749Z,99.90
2018-04-15T11:41:51.214Z,99.90
2018-04-15T11:44:18.687Z,95.00
2018-04-15T11:46:46.139Z,89.90
2018-04-15T11:49:13.676Z,82.70
2018-04-15T11:51:41.130Z,87.60
2018-04-15T11:54:09.367Z,92.30
2018-04-15T11:56:36.830Z,92.30
2018-04-15T11:59:04.265Z,91.10
2018-04-15T12:01:32.525Z,95.10
2018-04-15T12:04:01.491Z,99.00
2018-04-15T12:06:28.935Z,98.90
2018-04-15T12:08:56.402Z,97.70
2018-04-15T12:11:24.618Z,77.80
2018-04-15T12:13:52.075Z,77.70
2018-04-15T12:16:19.564Z,80.00
2018-04-15T12:18:47.075Z,77.10
2018-04-15T12:21:14.515Z,78.30
2018-04-15T12:23:41.991Z,84.90
2018-04-15T12:26:09.473Z,86.80
2018-04-15T12:28:36.933Z,81.20
2018-04-15T12:31:04.390Z,78.30
2018-04-15T12:33:31.863Z,78.80
2018-04-15T12:35:59.329Z,82.10
2018-04-15T12:38:26.780Z,90.50
2018-04-15T12:40:54.249Z,88.70
2018-04-15T12:43:21.741Z,89.60
2018-04-15T12:45:49.210Z,82.60
2018-04-15T12:48:16.677Z,88.20
2018-04-15T12:50:44.137Z,88.30
2018-04-15T12:53:11.576Z,82.70
2018-04-15T12:55:39.068Z,79.90
2018-04-15T12:58:06.551Z,80.70
2018-04-15T13:00:34.026Z,82.80
2018-04-15T13:03:01.504Z,77.10
2018-04-15T13:05:28.954Z,83.90
2018-04-15T13:07:56.454Z,79.70
2018-04-15T13:10:23.901Z,78.70
2018-04-15T13:12:51.342Z,79.90
2018-04-15T13:15:18.804Z,79.60
2018-04-15T13:17:46.328Z,71.00
2018-04-15T13:20:15.285Z,53.70
2018-04-15T13:22:42.777Z,53.70
2018-04-15T13:25:10.236Z,50.90
2018-04-15T13:27:37.727Z,51.00
2018-04-15T13:30:05.173Z,47.60
2018-04-15T13:32:32.608Z,46.40
2018-04-15T13:35:00.830Z,48.60
2018-04-15T13:37:28.276Z,48.10
2018-04-15T13:39:55.802Z,47.30
2018-04-15T13:42:23.261Z,49.30
2018-04-15T13:44:50.819Z,49.50
2018-04-15T13:47:18.291Z,49.60
2018-04-15T13:49:45.872Z,50.30
2018-04-15T13:52:13.348Z,51.40
2018-04-15T13:54:40.804Z,50.80
2018-04-15T13:57:08.256Z,51.80
2018-04-15T13:59:35.752Z,51.10
2018-04-15T14:02:03.225Z,47.30
2018-04-15T14:04:30.792Z,45.20
2018-04-15T14:06:58.244Z,42.80
2018-04-15T14:09:25.702Z,40.90
2018-04-15T14:11:53.210Z,38.80
2018-04-15T14:14:20.636Z,38.00
2018-04-15T14:16:48.125Z,36.10
2018-04-15T14:19:15.614Z,34.70
2018-04-15T14:21:43.062Z,35.20
2018-04-15T14:24:10.537Z,35.60
2018-04-15T14:26:37.976Z,35.30
2018-04-15T14:29:05.412Z,36.50
2018-04-15T14:31:32.935Z,37.50
2018-04-15T14:34:00.372Z,38.40
2018-04-15T14:36:28.599Z,41.50
2018-04-15T14:38:56.065Z,41.40
2018-04-15T14:41:23.518Z,42.00
2018-04-15T14:43:51.021Z,41.90
2018-04-15T14:46:18.484Z,42.50
2018-04-15T14:48:45.964Z,42.00
2018-04-15T14:51:13.023Z,43.10
2018-04-15T14:53:40.088Z,45.10
2018-04-15T14:56:07.084Z,46.30
2018-04-15T14:58:35.412Z,47.50
2018-04-15T15:01:02.406Z,47.60
2018-04-15T15:03:29.451Z,49.10
2018-04-15T15:05:56.474Z,48.70
2018-04-15T15:08:23.926Z,49.50
2018-04-15T15:10:50.930Z,50.60
2018-04-15T15:13:17.941Z,51.30
2018-04-15T15:15:44.951Z,51.90
2018-04-15T15:18:11.967Z,53.00
2018-04-15T15:20:38.960Z,52.80
2018-04-15T15:23:05.956Z,52.90
2018-04-15T15:25:33.728Z,54.40
2018-04-15T15:28:00.733Z,54.40
2018-04-15T15:30:27.747Z,55.70
2018-04-15T15:32:54.752Z,57.00
2018-04-15T15:35:21.743Z,58.90
2018-04-15T15:37:48.740Z,63.80
2018-04-15T15:40:15.750Z,62.60
2018-04-15T15:42:42.770Z,63.40
2018-04-15T15:45:09.767Z,72.40
2018-04-15T15:47:36.759Z,73.60
2018-04-15T15:50:04.559Z,81.10
2018-04-15T15:52:32.326Z,84.70
2018-04-15T15:55:00.088Z,82.00
2018-04-15T15:57:27.088Z,81.90
2018-04-15T15:59:54.084Z,84.50
2018-04-15T16:02:21.090Z,83.60
2018-04-15T16:04:48.106Z,91.10
2018-04-15T16:07:15.112Z,99.20
2018-04-15T16:09:42.117Z,93.60
2018-04-15T16:12:09.171Z,87.10
2018-04-15T16:14:36.249Z,77.10
2018-04-15T16:17:03.291Z,67.80
2018-04-15T16:19:30.365Z,61.70
2018-04-15T16:21:57.434Z,58.90
2018-04-15T16:24:24.476Z,58.80
2018-04-15T16:26:51.480Z,60.30
2018-04-15T16:29:18.510Z,63.00
2018-04-15T16:31:45.510Z,63.30
2018-04-15T16:34:12.661Z,68.00
2018-04-15T16:36:39.616Z,69.60
2018-04-15T16:39:06.645Z,66.20
2018-04-15T16:41:33.703Z,68.60
2018-04-15T16:44:00.762Z,71.60
2018-04-15T16:46:27.769Z,72.50
2018-04-15T16:48:54.786Z,74.20
2018-04-15T16:51:21.784Z,78.40
2018-04-15T16:53:48.803Z,81.90
2018-04-15T16:56:15.806Z,76.60
2018-04-15T16:58:42.826Z,76.90
2018-04-15T17:01:10.611Z,80.90
2018-04-15T17:03:38.390Z,75.30
2018-04-15T17:06:06.249Z,81.30
2018-04-15T17:08:33.292Z,81.30
2018-04-15T17:11:00.361Z,80.00
2018-04-15T17:13:27.360Z,85.60
2018-04-15T17:15:54.383Z,85.10
2018-04-15T17:18:21.427Z,90.20
2018-04-15T17:20:48.511Z,91.00
2018-04-15T17:23:15.570Z,95.70
2018-04-15T17:25:42.604Z,98.10
2018-04-15T17:28:11.219Z,99.90
2018-04-15T17:30:38.669Z,99.90
2018-04-15T17:33:06.151Z,99.90
2018-04-15T17:35:33.621Z,99.90
2018-04-15T17:38:01.082Z,99.90
2018-04-15T17:40:28.557Z,99.90
2018-04-15T17:42:56.028Z,99.90
2018-04-15T17:45:23.572Z,99.90
2018-04-15T17:47:51.067Z,99.90
2018-04-15T17:50:18.535Z,99.90
2018-04-15T17:52:46.037Z,99.90
2018-04-15T17:55:13.495Z,99.90
2018-04-15T17:57:41.716Z,99.90
2018-04-15T18:00:09.230Z,99.90
2018-04-15T18:02:36.878Z,99.90
2018-04-15T18:05:04.373Z,99.90
2018-04-15T18:07:31.851Z,99.90
2018-04-15T18:09:59.284Z,99.90
2018-04-15T18:12:26.749Z,99.90
2018-04-15T18:14:54.246Z,99.90
2018-04-15T18:17:21.800Z,99.90
2018-04-15T18:19:49.267Z,99.90
2018-04-15T18:22:16.774Z,99.90
2018-04-15T18:24:44.312Z,99.90
2018-04-15T18:27:11.766Z,99.90
2018-04-15T18:29:39.213Z,99.90
2018-04-15T18:32:06.679Z,99.90
2018-04-15T18:34:34.892Z,99.90
2018-04-15T18:37:02.461Z,99.90
2018-04-15T18:39:30.633Z,99.90
2018-04-15T18:41:58.141Z,99.90
2018-04-15T18:44:25.622Z,99.90
2018-04-15T18:46:53.078Z,99.90
2018-04-15T18:49:20.554Z,99.90
2018-04-15T18:51:48.017Z,99.90
2018-04-15T18:54:15.469Z,99.90
2018-04-15T18:56:42.917Z,99.90
2018-04-15T18:59:10.433Z,99.90
2018-04-15T19:01:37.884Z,99.90
2018-04-15T19:04:05.354Z,99.90
2018-04-15T19:06:32.799Z,99.90
2018-04-15T19:09:00.256Z,99.90
2018-04-15T19:11:28.474Z,99.90
2018-04-15T19:13:55.928Z,99.90
2018-04-15T19:16:23.450Z,99.90
2018-04-15T19:18:51.732Z,99.90
2018-04-15T19:21:19.317Z,99.90
2018-04-15T19:23:46.875Z,99.90
2018-04-15T19:26:14.359Z,99.90
2018-04-15T19:28:41.830Z,99.90
2018-04-15T19:31:09.298Z,99.90
2018-04-15T19:33:36.736Z,99.90
2018-04-15T19:36:04.225Z,99.90
2018-04-15T19:38:31.790Z,99.90
2018-04-15T19:40:59.285Z,99.90
2018-04-15T19:43:26.716Z,99.90
2018-04-15T19:45:54.193Z,99.90
2018-04-15T19:48:21.659Z,99.90
2018-04-15T19:50:49.105Z,99.90
2018-04-15T19:53:16.551Z,99.90
2018-04-15T19:55:44.032Z,99.90
2018-04-15T19:58:11.475Z,99.90
2018-04-15T20:00:39.731Z,99.90
2018-04-15T20:03:07.301Z,99.90
2018-04-15T20:05:34.860Z,99.90
2018-04-15T20:08:02.448Z,99.90
2018-04-15T20:10:29.979Z,99.90
2018-04-15T20:12:57.411Z,99.90
2018-04-15T20:15:25.671Z,99.90
2018-04-15T20:17:53.251Z,99.90
2018-04-15T20:20:20.826Z,99.90
2018-04-15T20:22:48.303Z,99.90
2018-04-15T20:25:15.756Z,99.90
2018-04-15T20:27:43.230Z,99.90
2018-04-15T20:30:10.679Z,99.90
2018-04-15T20:32:38.135Z,99.90
2018-04-15T20:35:05.630Z,99.90
2018-04-15T20:37:33.106Z,99.90
2018-04-15T20:40:00.582Z,99.90
2018-04-15T20:42:28.041Z,99.90
2018-04-15T20:44:55.523Z,99.90
2018-04-15T20:47:22.986Z,99.90
2018-04-15T20:49:50.440Z,99.90
2018-04-15T20:52:17.926Z,99.90
2018-04-15T20:54:46.147Z,99.90
2018-04-15T20:57:14.419Z,99.90
2018-04-15T20:59:42.692Z,99.90
2018-04-15T21:02:10.170Z,99.90
2018-04-15T21:04:37.626Z,99.90
2018-04-15T21:07:05.093Z,99.90
2018-04-15T21:09:32.548Z,99.90
2018-04-15T21:12:00.058Z,99.90
2018-04-15T21:14:27.510Z,99.90
2018-04-15T21:16:54.965Z,99.90
2018-04-15T21:19:22.551Z,99.90
2018-04-15T21:21:50.176Z,99.90
2018-04-15T21:24:17.644Z,99.90
2018-04-15T21:26:45.144Z,99.90
2018-04-15T21:29:12.610Z,99.90
2018-04-15T21:31:40.087Z,99.90
2018-04-15T21:34:07.555Z,99.90
2018-04-15T21:36:35.039Z,99.90
2018-04-15T21:39:02.504Z,99.90
2018-04-15T21:41:30.000Z,99.90
2018-04-15T21:43:57.474Z,99.90
2018-04-15T21:46:25.004Z,99.90
2018-04-15T21:48:52.487Z,99.90
2018-04-15T21:51:19.949Z,99.90
2018-04-15T21:53:47.434Z,99.90
2018-04-15T21:56:14.910Z,99.90
2018-04-15T21:58:42.385Z,99.90
2018-04-15T22:01:09.851Z,99.90
2018-04-15T22:03:38.139Z,99.90
2018-04-15T22:06:05.591Z,99.90
2018-04-15T22:08:33.061Z,99.90
2018-04-15T22:11:00.525Z,99.90
2018-04-15T22:13:27.997Z,99.90
2018-04-15T22:15:55.562Z,99.90
2018-04-15T22:18:23.044Z,99.90
2018-04-15T22:20:50.510Z,99.90
2018-04-15T22:23:18.074Z,99.90
2018-04-15T22:25:45.655Z,99.90
2018-04-15T22:28:13.226Z,99.90
2018-04-15T22:30:40.692Z,99.90
2018-04-15T22:33:08.162Z,99.90
2018-04-15T22:35:35.639Z,99.90
2018-04-15T22:38:03.096Z,99.90
2018-04-15T22:40:30.665Z,99.90
2018-04-15T22:42:58.147Z,99.90
2018-04-15T22:45:25.677Z,99.90
2018-04-15T22:47:58.910Z,99.90
2018-04-15T22:50:31.937Z,99.90
2018-04-15T22:52:59.404Z,99.90
2018-04-15T22:55:26.967Z,99.90
2018-04-15T22:57:54.542Z,99.90
2018-04-15T23:00:22.001Z,99.90
2018-04-15T23:02:49.483Z,99.90
2018-04-15T23:05:16.940Z,99.90
2018-04-15T23:07:44.405Z,99.90
2018-04-15T23:10:11.866Z,99.90
2018-04-15T23:12:39.329Z,99.90
2018-04-15T23:15:06.798Z,99.90
2018-04-15T23:17:34.285Z,99.90
2018-04-15T23:20:01.762Z,99.90
2018-04-15T23:22:29.325Z,99.90
2018-04-15T23:24:56.806Z,99.90
2018-04-15T23:27:24.364Z,99.90
2018-04-15T23:29:51.815Z,99.90
2018-04-15T23:32:19.322Z,99.90
2018-04-15T23:34:46.801Z,99.90
2018-04-15T23:37:15.228Z,99.90
2018-04-15T23:39:42.686Z,99.90
2018-04-15T23:42:10.167Z,99.90
2018-04-15T23:44:37.640Z,99.90
2018-04-15T23:47:05.145Z,99.90
2018-04-15T23:49:32.625Z,99.90
2018-04-15T23:52:00.210Z,99.90
2018-04-15T23:54:27.656Z,99.90
2018-04-15T23:56:55.156Z,99.90
2018-04-15T23:59:22.608Z,99.90
